Time;durP1;ratioP1;P1;durP2;ratioP2;P2;SDS_P1;SDS_P2;PMS_P1;PMS_P2;Temp;Humidity;BMP_temperature;BMP_pressure;BME280_temperature;BME280_humidity;BME280_pressure;Samples;Min_cycle;Max_cycle;Signal;HPM_P1;HPM_P2
2021/10/16 00:02:03;;;;;;;10.30;4.70;;;4.00;99.90;;;;;;5103633;28;20805;-59
2021/10/16 00:04:33;;;;;;;7.00;4.40;;;4.00;99.90;;;;;;5099259;28;20484;-58
2021/10/16 00:07:00;;;;;;;9.67;5.03;;;4.00;99.90;;;;;;5099806;28;20449;-55
2021/10/16 00:09:27;;;;;;;7.00;4.57;;;4.00;99.90;;;;;;5099676;28;20517;-57
2021/10/16 00:11:54;;;;;;;7.57;4.73;;;4.00;99.90;;;;;;5099356;28;20749;-57
2021/10/16 00:14:21;;;;;;;6.43;4.93;;;3.90;99.90;;;;;;5099279;28;20465;-58
2021/10/16 00:16:51;;;;;;;9.07;5.50;;;3.90;99.90;;;;;;5099230;28;20500;-56
2021/10/16 00:19:20;;;;;;;10.30;4.00;;;3.80;99.90;;;;;;5099675;28;20488;-55
2021/10/16 00:21:47;;;;;;;6.70;4.30;;;3.80;99.90;;;;;;5099420;28;20497;-56
2021/10/16 00:24:14;;;;;;;13.50;5.03;;;3.80;99.90;;;;;;5099669;28;20460;-55
2021/10/16 00:26:48;;;;;;;7.90;4.83;;;3.70;99.90;;;;;;5107196;27;20793;-57
2021/10/16 00:29:15;;;;;;;5.00;3.93;;;3.70;99.90;;;;;;5099408;28;20524;-57
2021/10/16 00:31:45;;;;;;;9.53;4.80;;;3.70;99.90;;;;;;5099196;28;20553;-55
2021/10/16 00:34:12;;;;;;;9.87;5.20;;;3.70;99.90;;;;;;5099288;28;20460;-57
2021/10/16 00:36:40;;;;;;;5.03;4.10;;;3.80;99.90;;;;;;5099125;28;20464;-55
2021/10/16 00:39:07;;;;;;;9.30;4.00;;;3.70;99.90;;;;;;5099122;28;20460;-53
2021/10/16 00:41:37;;;;;;;8.33;4.53;;;3.70;99.90;;;;;;5098814;28;20940;-55
2021/10/16 00:44:15;;;;;;;9.43;4.47;;;3.60;99.90;;;;;;5098764;28;20916;-58
2021/10/16 00:46:42;;;;;;;7.27;4.50;;;3.60;99.90;;;;;;5098581;28;20495;-59
2021/10/16 00:49:09;;;;;;;6.40;4.30;;;3.60;99.90;;;;;;5098891;28;20500;-59
2021/10/16 00:51:40;;;;;;;5.90;4.13;;;3.50;99.90;;;;;;5099098;28;20500;-57
2021/10/16 00:54:08;;;;;;;11.60;4.30;;;3.50;99.90;;;;;;5098471;28;20913;-58
2021/10/16 00:56:39;;;;;;;6.10;4.53;;;3.50;99.90;;;;;;5104007;28;20506;-58
2021/10/16 00:59:07;;;;;;;7.50;4.90;;;3.40;99.90;;;;;;5106067;28;20875;-58
2021/10/16 01:01:38;;;;;;;7.00;4.40;;;3.40;99.90;;;;;;5104256;28;20463;-59
2021/10/16 01:04:08;;;;;;;6.23;3.90;;;3.30;99.90;;;;;;5098652;28;20484;-59
2021/10/16 01:06:39;;;;;;;10.57;4.43;;;3.30;99.90;;;;;;5098452;28;20464;-57
2021/10/16 01:09:09;;;;;;;10.50;5.30;;;3.30;99.90;;;;;;5098672;28;20913;-59
2021/10/16 01:11:38;;;;;;;7.47;4.30;;;3.30;99.90;;;;;;5097428;28;20438;-57
2021/10/16 01:14:09;;;;;;;9.30;4.70;;;3.20;99.90;;;;;;5097878;28;20891;-53
2021/10/16 01:16:38;;;;;;;9.00;5.03;;;3.20;99.90;;;;;;5097847;28;20724;-55
2021/10/16 01:19:08;;;;;;;7.70;4.90;;;3.30;99.90;;;;;;5097913;28;20495;-58
2021/10/16 01:21:42;;;;;;;8.13;4.30;;;3.30;99.90;;;;;;5097843;28;20492;-58
2021/10/16 01:24:12;;;;;;;5.23;4.23;;;3.20;99.90;;;;;;5097510;28;20518;-56
2021/10/16 01:26:40;;;;;;;7.80;4.43;;;3.20;99.90;;;;;;5108344;27;20495;-55
2021/10/16 01:29:08;;;;;;;9.03;4.63;;;3.20;99.90;;;;;;5099192;27;20520;-57
2021/10/16 01:31:37;;;;;;;6.57;3.90;;;3.10;99.90;;;;;;5098028;28;20465;-58
2021/10/16 01:34:04;;;;;;;6.00;4.33;;;3.10;99.90;;;;;;5098336;28;20460;-58
2021/10/16 01:36:41;;;;;;;10.40;5.10;;;3.20;99.90;;;;;;5098100;28;20488;-58
2021/10/16 01:39:09;;;;;;;7.53;4.90;;;3.10;99.90;;;;;;5111821;28;20491;-56
2021/10/16 01:41:36;;;;;;;7.17;4.80;;;3.10;99.90;;;;;;5116900;28;20515;-58
2021/10/16 01:44:09;;;;;;;6.83;4.63;;;3.10;99.90;;;;;;5117242;28;20924;-59
2021/10/16 01:46:38;;;;;;;7.17;4.50;;;3.00;99.90;;;;;;5117545;28;20466;-59
2021/10/16 01:49:10;;;;;;;9.63;5.17;;;3.00;99.90;;;;;;5117361;28;20506;-59
2021/10/16 01:51:42;;;;;;;5.80;4.03;;;2.90;99.90;;;;;;5117341;28;20537;-57
2021/10/16 01:54:10;;;;;;;5.57;4.50;;;2.90;99.90;;;;;;5116871;28;20507;-57
2021/10/16 01:56:37;;;;;;;10.43;4.50;;;2.80;99.90;;;;;;5109813;28;20506;-59
2021/10/16 01:59:15;;;;;;;7.40;4.10;;;2.80;99.90;;;;;;5117210;28;20459;-58
2021/10/16 02:01:43;;;;;;;6.13;4.43;;;2.80;99.90;;;;;;5110488;28;20545;-54
2021/10/16 02:04:11;;;;;;;9.07;4.30;;;2.70;99.90;;;;;;5116489;28;20526;-57
2021/10/16 02:06:44;;;;;;;5.80;4.87;;;2.70;99.90;;;;;;5116892;28;20525;-59
2021/10/16 02:09:11;;;;;;;8.40;4.57;;;2.80;99.90;;;;;;5097280;28;20528;-59
2021/10/16 02:11:39;;;;;;;7.37;4.37;;;2.70;99.90;;;;;;5096721;28;20558;-59
2021/10/16 02:14:09;;;;;;;6.40;4.07;;;2.70;99.90;;;;;;5096445;28;20842;-59
2021/10/16 02:16:36;;;;;;;7.00;4.33;;;2.70;99.90;;;;;;5097565;28;20486;-58
2021/10/16 02:19:06;;;;;;;4.90;3.60;;;2.70;99.90;;;;;;5097107;28;20474;-58
2021/10/16 02:21:33;;;;;;;5.87;4.13;;;2.70;99.90;;;;;;5097347;28;20518;-57
2021/10/16 02:24:02;;;;;;;5.33;3.60;;;2.70;99.90;;;;;;5097398;28;20483;-57
2021/10/16 02:26:29;;;;;;;10.20;4.00;;;2.60;99.90;;;;;;5105200;28;20770;-57
2021/10/16 02:28:56;;;;;;;5.60;3.60;;;2.70;99.90;;;;;;5108066;28;20496;-52
2021/10/16 02:31:23;;;;;;;5.73;4.53;;;2.60;99.90;;;;;;5097435;28;20453;-54
2021/10/16 02:33:50;;;;;;;8.40;4.20;;;2.60;99.90;;;;;;5097302;28;20835;-55
2021/10/16 02:36:20;;;;;;;5.97;3.57;;;2.60;99.90;;;;;;5097331;28;20538;-57
2021/10/16 02:38:47;;;;;;;5.77;3.47;;;2.50;99.90;;;;;;5097095;28;20546;-56
2021/10/16 02:41:15;;;;;;;7.20;4.03;;;2.50;99.90;;;;;;5097146;28;20889;-56
2021/10/16 02:43:42;;;;;;;5.70;4.43;;;2.50;99.90;;;;;;5097182;28;20499;-58
2021/10/16 02:46:09;;;;;;;4.77;3.53;;;2.50;99.90;;;;;;5096983;28;20460;-53
2021/10/16 02:48:36;;;;;;;8.67;4.17;;;2.50;99.90;;;;;;5097015;28;20458;-57
2021/10/16 02:51:03;;;;;;;6.97;4.37;;;2.50;99.90;;;;;;5097175;28;20504;-59
2021/10/16 02:53:30;;;;;;;7.03;4.17;;;2.50;99.90;;;;;;5097311;28;20499;-58
2021/10/16 02:55:57;;;;;;;5.50;4.20;;;2.50;99.90;;;;;;5097858;28;20760;-59
2021/10/16 02:58:25;;;;;;;5.53;3.80;;;2.50;99.90;;;;;;5096868;28;20460;-58
2021/10/16 03:00:52;;;;;;;5.10;3.87;;;2.40;99.90;;;;;;5098695;28;20518;-59
2021/10/16 03:03:19;;;;;;;13.43;4.00;;;2.30;99.90;;;;;;5096917;28;20842;-59
2021/10/16 03:05:46;;;;;;;8.53;4.20;;;2.30;99.90;;;;;;5097485;28;20468;-58
2021/10/16 03:08:13;;;;;;;9.23;4.00;;;2.30;99.90;;;;;;5096718;28;20464;-55
2021/10/16 03:10:40;;;;;;;9.33;4.33;;;2.30;99.90;;;;;;5096971;28;20535;-54
2021/10/16 03:13:09;;;;;;;6.50;5.10;;;2.40;99.90;;;;;;5096583;28;20464;-55
2021/10/16 03:15:37;;;;;;;5.70;3.80;;;2.40;99.90;;;;;;5096943;28;20821;-56
2021/10/16 03:18:04;;;;;;;4.90;4.00;;;2.30;99.90;;;;;;5096367;28;20480;-57
2021/10/16 03:20:31;;;;;;;8.47;4.90;;;2.30;99.90;;;;;;5096384;28;20496;-55
2021/10/16 03:23:00;;;;;;;6.23;4.10;;;2.30;99.90;;;;;;5096767;28;20893;-55
2021/10/16 03:25:28;;;;;;;7.97;4.73;;;2.30;99.90;;;;;;5107359;28;20459;-56
2021/10/16 03:27:54;;;;;;;5.47;4.00;;;2.20;99.90;;;;;;5113428;27;20551;-55
2021/10/16 03:30:21;;;;;;;5.13;3.63;;;2.20;99.90;;;;;;5100158;28;20467;-58
2021/10/16 03:32:50;;;;;;;4.60;3.40;;;2.10;99.90;;;;;;5100109;28;20495;-54
2021/10/16 03:35:17;;;;;;;8.40;4.00;;;2.20;99.90;;;;;;5100526;28;20460;-52
2021/10/16 03:37:44;;;;;;;9.63;4.80;;;2.20;99.90;;;;;;5100345;28;20463;-51
2021/10/16 03:40:14;;;;;;;6.30;4.10;;;2.10;99.90;;;;;;5100131;28;20531;-55
2021/10/16 03:42:44;;;;;;;7.10;4.30;;;2.10;99.90;;;;;;5099533;28;20565;-58
2021/10/16 03:45:10;;;;;;;7.80;3.73;;;2.10;99.90;;;;;;5100295;28;20522;-59
2021/10/16 03:47:37;;;;;;;7.70;3.70;;;2.10;99.90;;;;;;5100217;28;20468;-58
2021/10/16 03:50:07;;;;;;;7.53;4.37;;;2.10;99.90;;;;;;5108974;28;20535;-59
2021/10/16 03:52:37;;;;;;;6.70;4.20;;;2.00;99.90;;;;;;5119719;28;20491;-59
2021/10/16 03:55:04;;;;;;;7.50;4.40;;;2.00;99.90;;;;;;5119638;28;20474;-59
2021/10/16 03:57:31;;;;;;;5.80;4.00;;;2.00;99.90;;;;;;5112088;28;20852;-59
2021/10/16 03:59:58;;;;;;;5.90;4.43;;;2.00;99.90;;;;;;5113711;28;20802;-59
2021/10/16 04:02:26;;;;;;;8.10;4.07;;;2.00;99.90;;;;;;5105930;28;20461;-58
2021/10/16 04:04:53;;;;;;;6.60;4.03;;;2.00;99.90;;;;;;5099524;28;20842;-57
2021/10/16 04:07:22;;;;;;;5.17;3.57;;;2.00;99.90;;;;;;5099927;28;20468;-58
2021/10/16 04:09:49;;;;;;;5.93;4.10;;;2.00;99.90;;;;;;5099705;28;20605;-57
2021/10/16 04:12:16;;;;;;;7.90;3.90;;;1.90;99.90;;;;;;5099558;28;20465;-57
2021/10/16 04:14:43;;;;;;;8.00;4.13;;;1.90;99.90;;;;;;5099619;28;20491;-57
2021/10/16 04:17:10;;;;;;;7.13;3.93;;;1.90;99.90;;;;;;5099634;28;20439;-57
2021/10/16 04:19:37;;;;;;;10.03;3.83;;;1.90;99.90;;;;;;5099623;28;20439;-57
2021/10/16 04:22:04;;;;;;;5.10;3.47;;;1.90;99.90;;;;;;5099192;28;20562;-58
2021/10/16 04:24:32;;;;;;;9.07;3.67;;;1.90;99.90;;;;;;5099221;28;20479;-57
2021/10/16 04:26:59;;;;;;;10.50;3.80;;;1.90;99.90;;;;;;5114723;27;20826;-58
2021/10/16 04:29:26;;;;;;;4.80;3.20;;;1.80;99.90;;;;;;5099409;28;20495;-57
2021/10/16 04:31:53;;;;;;;5.07;3.80;;;1.70;99.90;;;;;;5099571;28;20460;-55
2021/10/16 04:34:20;;;;;;;6.80;4.23;;;1.80;99.90;;;;;;5098968;28;20468;-58
2021/10/16 04:36:47;;;;;;;5.67;3.33;;;1.80;99.90;;;;;;5099052;28;20484;-59
2021/10/16 04:39:14;;;;;;;5.13;3.83;;;1.80;99.90;;;;;;5099304;28;20853;-59
2021/10/16 04:41:43;;;;;;;7.07;3.87;;;1.80;99.90;;;;;;5098869;28;20773;-59
2021/10/16 04:44:10;;;;;;;4.23;3.30;;;1.80;99.90;;;;;;5099120;28;20510;-59
2021/10/16 04:46:38;;;;;;;6.50;4.00;;;1.80;99.90;;;;;;5103500;28;20520;-59
2021/10/16 04:49:05;;;;;;;5.77;4.20;;;1.80;99.90;;;;;;5118170;28;20913;-59
2021/10/16 04:51:33;;;;;;;7.87;3.87;;;1.80;99.90;;;;;;5118774;28;20516;-59
2021/10/16 04:54:00;;;;;;;18.93;5.37;;;1.80;99.90;;;;;;5118088;28;20902;-59
2021/10/16 04:56:27;;;;;;;6.50;4.07;;;1.80;99.90;;;;;;5111473;28;20464;-54
2021/10/16 04:58:57;;;;;;;5.33;4.07;;;1.80;99.90;;;;;;5118109;28;20517;-59
2021/10/16 05:01:24;;;;;;;6.50;3.87;;;1.90;99.90;;;;;;5107679;28;20456;-58
2021/10/16 05:03:51;;;;;;;4.87;3.77;;;1.80;99.90;;;;;;5098425;28;20942;-59
2021/10/16 05:06:20;;;;;;;7.37;4.57;;;1.70;99.90;;;;;;5098557;28;20521;-59
2021/10/16 05:08:49;;;;;;;7.17;5.90;;;1.80;99.90;;;;;;5098672;28;20574;-58
2021/10/16 05:11:15;;;;;;;12.47;9.90;;;1.90;99.90;;;;;;5100822;28;20519;-57
2021/10/16 05:13:42;;;;;;;7.97;5.43;;;1.90;99.90;;;;;;5118020;28;20789;-55
2021/10/16 05:16:11;;;;;;;5.37;4.20;;;1.90;99.90;;;;;;5117006;28;21028;-58
2021/10/16 05:18:38;;;;;;;6.93;3.90;;;1.90;99.90;;;;;;5117727;28;20816;-58
2021/10/16 05:21:05;;;;;;;6.50;4.20;;;1.80;99.90;;;;;;5117709;28;20437;-59
2021/10/16 05:23:32;;;;;;;6.10;3.90;;;1.80;99.90;;;;;;5117983;28;20449;-59
2021/10/16 05:25:59;;;;;;;5.63;3.40;;;1.80;99.90;;;;;;5118066;28;20521;-59
2021/10/16 05:28:26;;;;;;;5.27;4.20;;;1.70;99.90;;;;;;5112300;27;20444;-60
2021/10/16 05:30:53;;;;;;;11.20;7.03;;;1.80;99.90;;;;;;5106407;28;20521;-59
2021/10/16 05:33:22;;;;;;;15.80;9.97;;;1.70;99.90;;;;;;5109807;28;20471;-59
2021/10/16 05:35:49;;;;;;;19.60;13.07;;;1.70;99.90;;;;;;5101836;28;20459;-59
2021/10/16 05:38:18;;;;;;;9.67;6.90;;;1.60;99.90;;;;;;5112896;28;20508;-60
2021/10/16 05:40:47;;;;;;;12.60;6.67;;;1.60;99.90;;;;;;5096891;28;20459;-60
2021/10/16 05:43:15;;;;;;;17.73;11.20;;;1.60;99.90;;;;;;5097737;28;20500;-60
2021/10/16 05:45:45;;;;;;;11.80;8.40;;;1.50;99.90;;;;;;5097341;28;20439;-61
2021/10/16 05:48:14;;;;;;;11.70;7.00;;;1.70;99.90;;;;;;5097418;28;20900;-61
2021/10/16 05:50:43;;;;;;;7.40;5.10;;;1.70;99.90;;;;;;5102056;28;20495;-61
2021/10/16 05:53:13;;;;;;;12.40;5.47;;;1.70;99.90;;;;;;5099665;28;20469;-61
2021/10/16 05:55:40;;;;;;;10.27;5.27;;;1.70;99.90;;;;;;5097564;28;20775;-61
2021/10/16 05:58:07;;;;;;;7.57;4.70;;;1.70;99.90;;;;;;5111436;28;20522;-61
2021/10/16 06:00:34;;;;;;;6.97;4.27;;;1.80;99.90;;;;;;5097817;28;20506;-60
2021/10/16 06:03:00;;;;;;;15.43;9.17;;;1.80;99.90;;;;;;5099816;28;20446;-61
2021/10/16 06:05:28;;;;;;;17.50;12.50;;;1.80;99.90;;;;;;5100912;28;20565;-61
2021/10/16 06:07:59;;;;;;;34.40;22.03;;;1.90;99.90;;;;;;5102266;28;20564;-61
2021/10/16 06:10:29;;;;;;;29.63;17.80;;;1.90;99.90;;;;;;5109042;28;20849;-61
2021/10/16 06:12:56;;;;;;;38.70;23.40;;;1.90;99.90;;;;;;5117038;28;20521;-61
2021/10/16 06:15:26;;;;;;;84.97;47.37;;;1.90;99.90;;;;;;5113855;28;20975;-61
2021/10/16 06:17:53;;;;;;;51.27;31.00;;;1.90;99.90;;;;;;5113410;28;20479;-61
2021/10/16 06:20:29;;;;;;;16.57;12.50;;;1.90;99.90;;;;;;5114975;28;20487;-61
2021/10/16 06:22:58;;;;;;;21.10;11.90;;;2.00;99.90;;;;;;5110540;28;20528;-61
2021/10/16 06:25:35;;;;;;;8.63;6.87;;;2.00;99.90;;;;;;5116500;28;20465;-61
2021/10/16 06:28:02;;;;;;;18.53;11.80;;;2.00;99.90;;;;;;5109636;28;20474;-61
2021/10/16 06:30:29;;;;;;;11.07;8.30;;;2.00;99.90;;;;;;5116299;28;20505;-61
2021/10/16 06:32:56;;;;;;;7.03;4.70;;;2.00;99.90;;;;;;5104129;28;20906;-61
2021/10/16 06:35:23;;;;;;;6.63;5.40;;;2.10;99.90;;;;;;5109644;28;20914;-61
2021/10/16 06:37:50;;;;;;;7.80;6.00;;;2.10;99.90;;;;;;5109057;28;20443;-61
2021/10/16 06:40:19;;;;;;;6.97;6.10;;;2.20;99.90;;;;;;5103752;28;20521;-61
2021/10/16 06:42:48;;;;;;;9.13;5.67;;;2.20;99.90;;;;;;5102395;28;20435;-61
2021/10/16 06:45:15;;;;;;;6.40;4.80;;;2.30;99.90;;;;;;5106854;28;20560;-61
2021/10/16 06:47:42;;;;;;;8.77;4.77;;;2.30;99.90;;;;;;5116364;28;20510;-61
2021/10/16 06:50:10;;;;;;;7.07;5.40;;;2.30;99.90;;;;;;5106472;28;20515;-61
2021/10/16 06:52:38;;;;;;;6.00;4.77;;;2.40;99.90;;;;;;5116681;28;20559;-61
2021/10/16 06:55:06;;;;;;;11.03;5.50;;;2.60;99.90;;;;;;5116115;28;20860;-61
2021/10/16 06:57:33;;;;;;;11.30;5.63;;;2.60;99.90;;;;;;5102696;28;20501;-61
2021/10/16 07:00:01;;;;;;;7.47;5.37;;;2.70;99.90;;;;;;5096889;28;20521;-61
2021/10/16 07:02:28;;;;;;;8.87;4.70;;;2.80;99.90;;;;;;5110466;28;20442;-61
2021/10/16 07:04:55;;;;;;;8.63;6.40;;;2.90;99.90;;;;;;5119999;28;20491;-61
2021/10/16 07:07:22;;;;;;;8.07;6.77;;;2.90;99.90;;;;;;5120177;28;20924;-61
2021/10/16 07:09:54;;;;;;;7.03;6.33;;;3.00;99.90;;;;;;5103008;28;20882;-61
2021/10/16 07:12:22;;;;;;;9.90;6.37;;;3.10;99.90;;;;;;5117645;28;20467;-61
2021/10/16 07:14:49;;;;;;;5.87;4.80;;;3.20;99.90;;;;;;5120421;28;20520;-61
2021/10/16 07:17:18;;;;;;;7.47;5.50;;;3.30;99.90;;;;;;5120494;28;20508;-61
2021/10/16 07:19:45;;;;;;;5.80;4.80;;;3.50;99.90;;;;;;5120304;28;20521;-62
2021/10/16 07:22:12;;;;;;;11.70;8.53;;;3.60;99.90;;;;;;5119569;28;20460;-62
2021/10/16 07:24:39;;;;;;;28.03;16.80;;;3.90;99.90;;;;;;5119755;28;20434;-62
2021/10/16 07:27:12;;;;;;;19.10;10.77;;;4.00;99.90;;;;;;5112969;28;20486;-62
2021/10/16 07:29:43;;;;;;;17.97;9.50;;;4.30;99.90;;;;;;5120399;28;20464;-63
2021/10/16 07:32:10;;;;;;;19.47;11.63;;;4.60;99.90;;;;;;5119972;28;20491;-64
2021/10/16 07:34:38;;;;;;;40.40;23.23;;;4.90;99.90;;;;;;5107302;28;20539;-64
2021/10/16 07:37:10;;;;;;;44.77;25.90;;;5.20;99.90;;;;;;5100537;28;20478;-64
2021/10/16 07:39:40;;;;;;;32.43;17.23;;;5.40;99.90;;;;;;5106872;27;20452;-64
2021/10/16 07:42:07;;;;;;;37.80;19.90;;;5.80;99.90;;;;;;5112971;28;20456;-64
2021/10/16 07:44:36;;;;;;;62.33;31.13;;;5.90;99.90;;;;;;5119576;28;20963;-64
2021/10/16 07:47:04;;;;;;;11.00;7.03;;;5.80;99.90;;;;;;5119787;28;20463;-63
2021/10/16 07:49:33;;;;;;;13.33;6.50;;;6.30;99.90;;;;;;5119705;28;20463;-63
2021/10/16 07:52:01;;;;;;;60.80;31.17;;;6.60;99.90;;;;;;5119184;28;20502;-63
2021/10/16 07:54:28;;;;;;;21.40;13.00;;;6.90;99.90;;;;;;5119052;28;20438;-63
2021/10/16 07:56:57;;;;;;;25.00;15.90;;;7.10;99.90;;;;;;5115828;27;20460;-63
2021/10/16 07:59:24;;;;;;;19.83;13.27;;;7.40;99.90;;;;;;5109039;27;20468;-63
2021/10/16 08:01:53;;;;;;;13.80;8.77;;;7.60;99.90;;;;;;5105968;28;20456;-63
2021/10/16 08:04:20;;;;;;;9.97;6.60;;;7.80;99.90;;;;;;5099381;28;20488;-63
2021/10/16 08:06:48;;;;;;;14.07;8.30;;;7.80;99.90;;;;;;5099680;28;20460;-63
2021/10/16 08:09:16;;;;;;;13.53;9.20;;;7.80;99.90;;;;;;5099666;28;20470;-63
2021/10/16 08:11:45;;;;;;;15.80;10.20;;;7.90;99.90;;;;;;5098850;28;20471;-63
2021/10/16 08:14:14;;;;;;;33.53;18.23;;;8.30;99.90;;;;;;5118688;27;20544;-63
2021/10/16 08:16:41;;;;;;;16.80;9.47;;;8.30;99.90;;;;;;5098733;28;20468;-63
2021/10/16 08:19:11;;;;;;;23.87;14.47;;;8.70;1.00;;;;;;5114244;28;20869;-63
2021/10/16 08:21:46;;;;;;;11.73;8.80;;;9.40;99.90;;;;;;5118949;28;20491;-62
2021/10/16 08:24:13;;;;;;;7.83;6.23;;;9.80;99.90;;;;;;5118224;28;20958;-62
2021/10/16 08:26:42;;;;;;;11.07;7.03;;;10.10;8.60;;;;;;5119661;27;20517;-62
2021/10/16 08:29:09;;;;;;;8.77;6.90;;;10.20;1.00;;;;;;5104396;27;20515;-62
2021/10/16 08:31:39;;;;;;;10.37;7.10;;;10.30;1.00;;;;;;5098734;28;20608;-62
2021/10/16 08:34:08;;;;;;;7.03;5.00;;;10.50;1.00;;;;;;5098794;28;20468;-62
2021/10/16 08:36:35;;;;;;;23.27;14.77;;;10.50;1.00;;;;;;5099176;28;20465;-62
2021/10/16 08:39:02;;;;;;;8.90;5.80;;;10.80;1.00;;;;;;5102862;28;20466;-62
2021/10/16 08:41:32;;;;;;;7.27;5.13;;;10.80;1.00;;;;;;5119200;28;20452;-62
2021/10/16 08:44:00;;;;;;;7.90;4.70;;;11.10;1.00;;;;;;5119386;28;20462;-62
2021/10/16 08:46:28;;;;;;;9.67;5.40;;;11.30;1.00;;;;;;5119015;28;20483;-62
2021/10/16 08:49:05;;;;;;;8.37;4.83;;;11.40;1.00;;;;;;5118974;28;20925;-62
2021/10/16 08:51:35;;;;;;;9.70;5.17;;;11.20;1.00;;;;;;5119103;28;20779;-62
2021/10/16 08:54:07;;;;;;;13.50;7.67;;;11.70;1.00;;;;;;5118829;28;20459;-62
2021/10/16 08:56:34;;;;;;;6.87;4.90;;;11.80;1.00;;;;;;5118641;28;20470;-62
2021/10/16 08:59:02;;;;;;;6.67;4.87;;;12.10;1.00;;;;;;5119242;28;20481;-62
2021/10/16 09:01:29;;;;;;;8.63;5.53;;;12.40;1.00;;;;;;5107147;28;20913;-61
2021/10/16 09:04:00;;;;;;;9.37;6.63;;;12.70;1.00;;;;;;5098519;28;20546;-62
2021/10/16 09:06:30;;;;;;;6.73;6.03;;;12.90;1.00;;;;;;5099414;28;20555;-61
2021/10/16 09:09:02;;;;;;;9.53;6.37;;;13.00;1.00;;;;;;5127703;27;20882;-61
2021/10/16 09:11:32;;;;;;;10.80;5.43;;;12.90;1.00;;;;;;5126651;27;20490;-61
2021/10/16 09:14:03;;;;;;;7.63;5.43;;;13.10;1.00;;;;;;5126462;27;20515;-61
2021/10/16 09:16:36;;;;;;;10.70;6.40;;;12.90;1.00;;;;;;5124373;27;20433;-61
2021/10/16 09:19:21;;;;;;;10.57;6.10;;;12.80;1.00;;;;;;5139017;27;20429;-61
2021/10/16 09:21:53;;;;;;;15.73;6.77;;;13.20;1.00;;;;;;5138982;27;20467;-61
2021/10/16 09:24:26;;;;;;;13.40;5.90;;;13.60;1.00;;;;;;5137973;27;20492;-61
2021/10/16 09:26:55;;;;;;;8.33;4.53;;;13.90;1.00;;;;;;5135369;27;20890;-61
2021/10/16 09:29:24;;;;;;;8.20;4.23;;;14.10;1.00;;;;;;5117848;28;20455;-61
2021/10/16 09:31:54;;;;;;;11.07;4.93;;;14.30;1.00;;;;;;5117241;28;20488;-61
2021/10/16 09:34:26;;;;;;;8.87;4.27;;;14.90;1.00;;;;;;5117797;28;20889;-61
2021/10/16 09:36:54;;;;;;;7.03;3.83;;;15.40;1.00;;;;;;5117926;28;20555;-61
2021/10/16 09:39:21;;;;;;;12.33;3.77;;;15.60;1.00;;;;;;5117778;28;20508;-61
2021/10/16 09:41:49;;;;;;;12.20;4.10;;;15.70;99.90;;;;;;5118020;28;20757;-61
2021/10/16 09:44:28;;;;;;;7.70;3.47;;;15.50;99.90;;;;;;5117803;28;20537;-61
2021/10/16 09:47:12;;;;;;;11.20;3.70;;;15.10;99.90;;;;;;5117605;28;20478;-61
2021/10/16 09:49:49;;;;;;;8.10;3.30;;;15.90;99.90;;;;;;5117877;28;20755;-61
2021/10/16 09:52:18;;;;;;;6.87;3.43;;;15.60;99.90;;;;;;5117555;28;20577;-60
2021/10/16 09:54:47;;;;;;;6.83;2.87;;;14.80;99.90;;;;;;5117466;28;20498;-58
2021/10/16 09:57:19;;;;;;;5.83;3.50;;;14.00;99.90;;;;;;5117686;28;20468;-57
2021/10/16 09:59:49;;;;;;;10.00;3.70;;;13.30;99.90;;;;;;5117505;28;20513;-58
2021/10/16 10:02:16;;;;;;;7.00;3.83;;;13.10;99.90;;;;;;5117112;28;20455;-58
2021/10/16 10:04:46;;;;;;;7.07;3.30;;;12.90;99.90;;;;;;5117128;28;20537;-58
2021/10/16 10:07:14;;;;;;;9.87;3.67;;;12.80;99.90;;;;;;5117739;28;20440;-58
2021/10/16 10:09:45;;;;;;;9.57;4.13;;;13.10;99.90;;;;;;5117453;28;20455;-58
2021/10/16 10:12:15;;;;;;;9.97;3.87;;;12.90;99.90;;;;;;5117235;28;20491;-56
2021/10/16 10:14:48;;;;;;;5.50;3.27;;;13.00;99.90;;;;;;5117576;28;20463;-57
2021/10/16 10:17:24;;;;;;;7.67;3.50;;;12.90;99.90;;;;;;5116964;28;20560;-56
2021/10/16 10:19:57;;;;;;;5.23;3.67;;;12.40;99.90;;;;;;5117328;28;20545;-57
2021/10/16 10:22:28;;;;;;;5.70;3.27;;;12.20;99.90;;;;;;5117200;28;20528;-56
2021/10/16 10:24:55;;;;;;;9.40;4.27;;;12.10;99.90;;;;;;5117648;28;20540;-54
2021/10/16 10:27:24;;;;;;;9.57;4.07;;;12.90;99.90;;;;;;5117591;28;20438;-55
2021/10/16 10:29:56;;;;;;;6.77;3.47;;;14.10;99.90;;;;;;5117717;28;20459;-57
2021/10/16 10:32:25;;;;;;;6.83;4.20;;;15.10;99.90;;;;;;5117153;28;20498;-56
2021/10/16 10:34:57;;;;;;;6.53;3.63;;;15.60;99.90;;;;;;5119947;28;20434;-56
2021/10/16 10:37:44;;;;;;;10.63;4.67;;;15.50;99.90;;;;;;5120952;28;20470;-56
2021/10/16 10:40:23;;;;;;;6.50;4.00;;;15.60;99.90;;;;;;5121919;28;20470;-55
2021/10/16 10:42:58;;;;;;;5.90;3.30;;;15.60;99.90;;;;;;5121042;28;20805;-56
2021/10/16 10:45:37;;;;;;;8.40;3.50;;;15.60;99.90;;;;;;5121113;28;20498;-56
2021/10/16 10:48:18;;;;;;;7.57;3.50;;;15.80;99.90;;;;;;5121246;28;20470;-55
2021/10/16 10:51:06;;;;;;;5.73;3.73;;;16.00;99.90;;;;;;5121603;28;20536;-56
2021/10/16 10:53:43;;;;;;;7.80;3.90;;;16.00;99.90;;;;;;5121393;28;20457;-58
2021/10/16 10:56:21;;;;;;;5.40;3.03;;;16.10;99.90;;;;;;5121511;28;20487;-58
2021/10/16 10:59:16;;;;;;;7.07;3.70;;;16.60;99.90;;;;;;5121864;28;20472;-57
2021/10/16 11:01:59;;;;;;;10.20;3.37;;;17.10;99.90;;;;;;5107940;28;20456;-58
2021/10/16 11:04:51;;;;;;;8.90;4.00;;;17.50;99.90;;;;;;5106430;28;20475;-57
2021/10/16 11:07:39;;;;;;;6.13;3.17;;;17.90;99.90;;;;;;5119891;28;20527;-54
2021/10/16 11:10:08;;;;;;;6.17;3.00;;;18.30;99.90;;;;;;5121076;28;20463;-57
2021/10/16 11:12:36;;;;;;;6.07;3.00;;;18.00;99.90;;;;;;5120734;28;20491;-56
2021/10/16 11:15:07;;;;;;;7.57;3.40;;;18.20;99.90;;;;;;5121030;28;20463;-55
2021/10/16 11:17:37;;;;;;;6.43;3.63;;;18.10;99.90;;;;;;5121400;28;20524;-57
2021/10/16 11:20:13;;;;;;;8.23;3.40;;;18.20;99.90;;;;;;5121328;28;20459;-54
2021/10/16 11:22:52;;;;;;;7.33;3.03;;;18.40;99.90;;;;;;5120807;28;20463;-58
2021/10/16 11:25:23;;;;;;;6.83;3.40;;;18.60;99.90;;;;;;5120783;28;20463;-56
2021/10/16 11:28:11;;;;;;;4.77;3.53;;;18.00;99.90;;;;;;5120825;28;20805;-57
2021/10/16 11:30:43;;;;;;;4.70;3.30;;;18.00;99.90;;;;;;5120640;28;20883;-53
2021/10/16 11:33:16;;;;;;;9.80;3.93;;;18.40;99.90;;;;;;5120939;28;20589;-52
2021/10/16 11:35:44;;;;;;;8.77;3.50;;;18.40;99.90;;;;;;5120664;28;20459;-54
2021/10/16 11:38:16;;;;;;;6.70;3.93;;;18.20;99.90;;;;;;5120054;28;20458;-56
2021/10/16 11:40:43;;;;;;;7.63;3.53;;;18.30;99.90;;;;;;5120473;28;20455;-58
2021/10/16 11:43:16;;;;;;;9.00;3.50;;;18.60;99.90;;;;;;5120679;28;20451;-56
2021/10/16 11:45:45;;;;;;;4.10;3.17;;;18.10;99.90;;;;;;5119738;28;20463;-54
2021/10/16 11:48:17;;;;;;;7.67;3.57;;;18.10;99.90;;;;;;5120162;28;20533;-56
2021/10/16 11:50:45;;;;;;;10.73;3.90;;;17.70;99.90;;;;;;5120718;28;20629;-55
2021/10/16 11:53:14;;;;;;;7.27;4.47;;;16.80;99.90;;;;;;5120241;28;20465;-51
2021/10/16 11:55:43;;;;;;;6.00;2.93;;;16.00;99.90;;;;;;5120218;28;20950;-50
2021/10/16 11:58:13;;;;;;;5.87;3.13;;;15.50;99.90;;;;;;5120349;28;20447;-51
2021/10/16 12:00:44;;;;;;;9.97;3.73;;;15.10;99.90;;;;;;5115492;28;20452;-49
2021/10/16 12:03:17;;;;;;;6.13;3.07;;;15.10;99.90;;;;;;5100274;28;20783;-50
2021/10/16 12:05:48;;;;;;;4.27;2.97;;;15.10;99.90;;;;;;5099108;28;20488;-49
2021/10/16 12:08:18;;;;;;;7.57;3.07;;;14.80;99.90;;;;;;5099340;28;20443;-53
2021/10/16 12:10:47;;;;;;;6.37;3.03;;;14.50;99.90;;;;;;5099480;28;20782;-54
2021/10/16 12:13:15;;;;;;;9.57;4.07;;;14.20;99.90;;;;;;5108142;27;20576;-53
2021/10/16 12:15:44;;;;;;;8.43;3.73;;;14.40;99.90;;;;;;5119002;28;20478;-50
2021/10/16 12:18:24;;;;;;;8.47;3.47;;;14.00;99.90;;;;;;5119281;28;20456;-49
2021/10/16 12:20:54;;;;;;;6.13;3.23;;;13.60;99.90;;;;;;5119778;28;20803;-51
2021/10/16 12:23:23;;;;;;;8.63;3.80;;;13.40;99.90;;;;;;5125618;27;20836;-54
2021/10/16 12:25:56;;;;;;;6.47;3.13;;;13.50;99.90;;;;;;5128721;27;20465;-52
2021/10/16 12:28:24;;;;;;;5.67;3.77;;;13.70;99.90;;;;;;5125746;27;20516;-48
2021/10/16 12:31:06;;;;;;;6.80;3.27;;;13.60;99.90;;;;;;5126597;27;20437;-47
2021/10/16 12:33:59;;;;;;;5.77;3.40;;;13.50;99.90;;;;;;5129190;27;20522;-51
2021/10/16 12:36:31;;;;;;;9.80;3.50;;;13.70;99.90;;;;;;5127920;27;20746;-49
2021/10/16 12:38:58;;;;;;;6.37;3.60;;;13.30;99.90;;;;;;5130467;27;20458;-48
2021/10/16 12:41:35;;;;;;;6.90;3.60;;;13.00;99.90;;;;;;5121347;27;20442;-51
2021/10/16 12:44:20;;;;;;;7.47;3.63;;;12.80;99.90;;;;;;5120353;27;20467;-49
2021/10/16 12:46:49;;;;;;;11.00;3.70;;;12.90;99.90;;;;;;5117155;28;20836;-50
2021/10/16 12:49:29;;;;;;;7.87;3.33;;;13.00;99.90;;;;;;5125217;27;20539;-50
2021/10/16 12:51:59;;;;;;;4.43;2.70;;;13.00;99.90;;;;;;5126650;27;20482;-54
2021/10/16 12:54:39;;;;;;;15.23;4.20;;;13.10;99.90;;;;;;5122913;27;20513;-50
2021/10/16 12:57:11;;;;;;;7.40;3.57;;;13.20;99.90;;;;;;5123724;27;20466;-56
2021/10/16 12:59:39;;;;;;;7.20;2.70;;;13.30;99.90;;;;;;5104122;28;20446;-53
2021/10/16 13:02:09;;;;;;;5.30;3.23;;;13.10;99.90;;;;;;5121048;27;20483;-48
2021/10/16 13:04:48;;;;;;;10.57;4.30;;;13.00;99.90;;;;;;5121699;27;20515;-56